sensor_id;sensor_type;location;lat;lon;timestamp;P1;durP1;ratioP1;P2;durP2;ratioP2
44572;SDS011;31762;45.420;10.072;2024-01-06T00:02:00;5.65;;;5.20;;
44572;SDS011;31762;45.420;10.072;2024-01-06T00:07:02;5.30;;;4.90;;
44572;SDS011;31762;45.420;10.072;2024-01-06T00:12:05;6.32;;;5.82;;
44572;SDS011;31762;45.420;10.072;2024-01-06T00:17:07;6.93;;;6.43;;
44572;SDS011;31762;45.420;10.072;2024-01-06T00:22:09;6.50;;;6.00;;
44572;SDS011;31762;45.420;10.072;2024-01-06T00:27:12;6.45;;;5.95;;
44572;SDS011;31762;45.420;10.072;2024-01-06T00:32:14;6.43;;;5.93;;
44572;SDS011;31762;45.420;10.072;2024-01-06T00:37:16;6.72;;;6.20;;
44572;SDS011;31762;45.420;10.072;2024-01-06T00:42:18;6.57;;;6.07;;
44572;SDS011;31762;45.420;10.072;2024-01-06T00:47:21;6.07;;;5.55;;
44572;SDS011;31762;45.420;10.072;2024-01-06T00:52:23;7.43;;;6.72;;
44572;SDS011;31762;45.420;10.072;2024-01-06T00:57:25;6.45;;;5.93;;
44572;SDS011;31762;45.420;10.072;2024-01-06T01:02:27;7.30;;;6.65;;
44572;SDS011;31762;45.420;10.072;2024-01-06T01:07:30;6.53;;;6.03;;
44572;SDS011;31762;45.420;10.072;2024-01-06T01:12:32;6.85;;;6.35;;
44572;SDS011;31762;45.420;10.072;2024-01-06T01:17:34;7.20;;;6.60;;
44572;SDS011;31762;45.420;10.072;2024-01-06T01:22:36;6.57;;;6.07;;
44572;SDS011;31762;45.420;10.072;2024-01-06T01:27:38;6.63;;;6.07;;
44572;SDS011;31762;45.420;10.072;2024-01-06T01:32:41;6.28;;;5.78;;
44572;SDS011;31762;45.420;10.072;2024-01-06T01:37:43;6.50;;;5.90;;
44572;SDS011;31762;45.420;10.072;2024-01-06T01:42:45;6.45;;;5.95;;
44572;SDS011;31762;45.420;10.072;2024-01-06T01:47:47;5.80;;;5.40;;
44572;SDS011;31762;45.420;10.072;2024-01-06T01:52:50;5.53;;;5.10;;
44572;SDS011;31762;45.420;10.072;2024-01-06T01:57:52;5.85;;;5.35;;
44572;SDS011;31762;45.420;10.072;2024-01-06T02:02:54;5.18;;;4.78;;
44572;SDS011;31762;45.420;10.072;2024-01-06T02:07:57;5.85;;;5.35;;
44572;SDS011;31762;45.420;10.072;2024-01-06T02:13:11;5.80;;;5.40;;
44572;SDS011;31762;45.420;10.072;2024-01-06T02:18:13;5.22;;;4.82;;
44572;SDS011;31762;45.420;10.072;2024-01-06T02:23:16;5.20;;;4.80;;
44572;SDS011;31762;45.420;10.072;2024-01-06T02:28:18;5.22;;;4.82;;
44572;SDS011;31762;45.420;10.072;2024-01-06T02:33:20;5.00;;;4.40;;
44572;SDS011;31762;45.420;10.072;2024-01-06T02:38:23;4.47;;;4.18;;
44572;SDS011;31762;45.420;10.072;2024-01-06T02:43:25;5.40;;;5.00;;
44572;SDS011;31762;45.420;10.072;2024-01-06T02:48:27;5.07;;;4.68;;
44572;SDS011;31762;45.420;10.072;2024-01-06T02:53:29;4.55;;;4.15;;
44572;SDS011;31762;45.420;10.072;2024-01-06T02:58:32;5.25;;;4.85;;
44572;SDS011;31762;45.420;10.072;2024-01-06T03:03:34;4.88;;;4.47;;
44572;SDS011;31762;45.420;10.072;2024-01-06T03:08:36;3.67;;;3.47;;
44572;SDS011;31762;45.420;10.072;2024-01-06T03:13:38;4.20;;;3.90;;
44572;SDS011;31762;45.420;10.072;2024-01-06T03:18:40;4.43;;;4.10;;
44572;SDS011;31762;45.420;10.072;2024-01-06T03:23:43;4.07;;;3.72;;
44572;SDS011;31762;45.420;10.072;2024-01-06T03:28:45;3.97;;;3.67;;
44572;SDS011;31762;45.420;10.072;2024-01-06T03:33:47;4.28;;;3.97;;
44572;SDS011;31762;45.420;10.072;2024-01-06T03:38:49;4.10;;;3.80;;
44572;SDS011;31762;45.420;10.072;2024-01-06T03:43:52;3.70;;;3.40;;
44572;SDS011;31762;45.420;10.072;2024-01-06T03:48:54;4.10;;;3.80;;
44572;SDS011;31762;45.420;10.072;2024-01-06T03:53:56;4.05;;;3.75;;
44572;SDS011;31762;45.420;10.072;2024-01-06T03:58:58;4.15;;;3.85;;
44572;SDS011;31762;45.420;10.072;2024-01-06T04:04:03;3.92;;;3.63;;
44572;SDS011;31762;45.420;10.072;2024-01-06T04:09:06;3.78;;;3.47;;
44572;SDS011;31762;45.420;10.072;2024-01-06T04:14:08;4.22;;;3.92;;
44572;SDS011;31762;45.420;10.072;2024-01-06T04:19:10;4.20;;;3.90;;
44572;SDS011;31762;45.420;10.072;2024-01-06T04:24:13;3.90;;;3.60;;
44572;SDS011;31762;45.420;10.072;2024-01-06T04:29:15;4.03;;;3.83;;
44572;SDS011;31762;45.420;10.072;2024-01-06T04:34:17;3.90;;;3.60;;
44572;SDS011;31762;45.420;10.072;2024-01-06T04:39:19;4.53;;;4.22;;
44572;SDS011;31762;45.420;10.072;2024-01-06T04:44:22;3.78;;;3.50;;
44572;SDS011;31762;45.420;10.072;2024-01-06T04:49:24;4.15;;;3.85;;
44572;SDS011;31762;45.420;10.072;2024-01-06T04:54:26;4.30;;;4.00;;
44572;SDS011;31762;45.420;10.072;2024-01-06T04:59:28;3.80;;;3.60;;
44572;SDS011;31762;45.420;10.072;2024-01-06T05:04:31;4.60;;;4.30;;
44572;SDS011;31762;45.420;10.072;2024-01-06T05:09:33;4.80;;;4.40;;
44572;SDS011;31762;45.420;10.072;2024-01-06T05:14:35;4.50;;;4.20;;
44572;SDS011;31762;45.420;10.072;2024-01-06T05:19:37;3.55;;;3.30;;
44572;SDS011;31762;45.420;10.072;2024-01-06T05:24:39;3.67;;;3.38;;
44572;SDS011;31762;45.420;10.072;2024-01-06T05:29:42;3.53;;;3.33;;
44572;SDS011;31762;45.420;10.072;2024-01-06T05:34:44;3.97;;;3.67;;
44572;SDS011;31762;45.420;10.072;2024-01-06T05:39:47;4.25;;;3.90;;
44572;SDS011;31762;45.420;10.072;2024-01-06T05:44:49;4.40;;;4.10;;
44572;SDS011;31762;45.420;10.072;2024-01-06T05:49:52;4.03;;;3.72;;
44572;SDS011;31762;45.420;10.072;2024-01-06T05:54:54;4.72;;;4.43;;
44572;SDS011;31762;45.420;10.072;2024-01-06T05:59:56;4.47;;;4.18;;
44572;SDS011;31762;45.420;10.072;2024-01-06T06:04:58;5.57;;;5.18;;
44572;SDS011;31762;45.420;10.072;2024-01-06T06:10:00;6.43;;;5.55;;
44572;SDS011;31762;45.420;10.072;2024-01-06T06:15:03;7.40;;;6.18;;
44572;SDS011;31762;45.420;10.072;2024-01-06T06:20:06;8.48;;;7.05;;
44572;SDS011;31762;45.420;10.072;2024-01-06T06:25:08;8.55;;;7.80;;
44572;SDS011;31762;45.420;10.072;2024-01-06T06:30:10;9.40;;;8.00;;
44572;SDS011;31762;45.420;10.072;2024-01-06T06:35:13;8.57;;;7.70;;
44572;SDS011;31762;45.420;10.072;2024-01-06T06:40:15;9.30;;;8.48;;
44572;SDS011;31762;45.420;10.072;2024-01-06T06:45:17;8.40;;;7.70;;
44572;SDS011;31762;45.420;10.072;2024-01-06T06:50:19;9.60;;;8.80;;
44572;SDS011;31762;45.420;10.072;2024-01-06T06:55:22;11.30;;;8.15;;
44572;SDS011;31762;45.420;10.072;2024-01-06T07:00:24;9.77;;;8.88;;
44572;SDS011;31762;45.420;10.072;2024-01-06T07:05:26;9.63;;;8.63;;
44572;SDS011;31762;45.420;10.072;2024-01-06T07:10:28;10.80;;;9.80;;
44572;SDS011;31762;45.420;10.072;2024-01-06T07:15:31;10.40;;;9.45;;
44572;SDS011;31762;45.420;10.072;2024-01-06T07:20:33;9.50;;;8.63;;
44572;SDS011;31762;45.420;10.072;2024-01-06T07:25:35;10.73;;;9.82;;
44572;SDS011;31762;45.420;10.072;2024-01-06T07:30:37;10.30;;;9.30;;
44572;SDS011;31762;45.420;10.072;2024-01-06T07:35:39;11.32;;;10.32;;
44572;SDS011;31762;45.420;10.072;2024-01-06T07:40:42;12.15;;;11.05;;
44572;SDS011;31762;45.420;10.072;2024-01-06T07:45:44;11.60;;;10.50;;
44572;SDS011;31762;45.420;10.072;2024-01-06T07:50:46;12.93;;;11.63;;
44572;SDS011;31762;45.420;10.072;2024-01-06T07:55:49;11.23;;;10.25;;
44572;SDS011;31762;45.420;10.072;2024-01-06T08:00:51;12.30;;;11.23;;
44572;SDS011;31762;45.420;10.072;2024-01-06T08:05:53;11.27;;;10.27;;
44572;SDS011;31762;45.420;10.072;2024-01-06T08:10:55;12.60;;;11.57;;
44572;SDS011;31762;45.420;10.072;2024-01-06T08:15:57;12.38;;;11.27;;
44572;SDS011;31762;45.420;10.072;2024-01-06T08:21:00;10.75;;;9.88;;
44572;SDS011;31762;45.420;10.072;2024-01-06T08:26:02;11.85;;;10.85;;
44572;SDS011;31762;45.420;10.072;2024-01-06T08:31:04;11.88;;;10.88;;
44572;SDS011;31762;45.420;10.072;2024-01-06T08:36:07;11.18;;;10.25;;
44572;SDS011;31762;45.420;10.072;2024-01-06T08:41:09;12.40;;;11.35;;
44572;SDS011;31762;45.420;10.072;2024-01-06T08:46:11;11.20;;;10.25;;
44572;SDS011;31762;45.420;10.072;2024-01-06T08:51:13;12.35;;;11.35;;
44572;SDS011;31762;45.420;10.072;2024-01-06T08:56:15;11.70;;;10.70;;
44572;SDS011;31762;45.420;10.072;2024-01-06T09:01:18;11.73;;;10.73;;
44572;SDS011;31762;45.420;10.072;2024-01-06T09:06:20;13.70;;;12.50;;
44572;SDS011;31762;45.420;10.072;2024-01-06T09:11:22;11.75;;;10.75;;
44572;SDS011;31762;45.420;10.072;2024-01-06T09:16:25;11.20;;;10.30;;
44572;SDS011;31762;45.420;10.072;2024-01-06T09:21:27;12.05;;;10.95;;
44572;SDS011;31762;45.420;10.072;2024-01-06T09:26:29;11.90;;;11.00;;
44572;SDS011;31762;45.420;10.072;2024-01-06T09:31:31;12.07;;;11.07;;
44572;SDS011;31762;45.420;10.072;2024-01-06T09:36:34;12.95;;;11.75;;
44572;SDS011;31762;45.420;10.072;2024-01-06T09:41:36;12.05;;;11.02;;
44572;SDS011;31762;45.420;10.072;2024-01-06T09:46:38;11.75;;;10.85;;
44572;SDS011;31762;45.420;10.072;2024-01-06T09:51:41;12.57;;;11.52;;
44572;SDS011;31762;45.420;10.072;2024-01-06T09:56:44;12.05;;;11.05;;
44572;SDS011;31762;45.420;10.072;2024-01-06T10:01:47;12.23;;;11.13;;
44572;SDS011;31762;45.420;10.072;2024-01-06T10:06:49;12.80;;;11.80;;
44572;SDS011;31762;45.420;10.072;2024-01-06T10:11:54;10.80;;;9.90;;
44572;SDS011;31762;45.420;10.072;2024-01-06T10:16:56;12.25;;;11.25;;
44572;SDS011;31762;45.420;10.072;2024-01-06T10:21:58;12.35;;;11.35;;
44572;SDS011;31762;45.420;10.072;2024-01-06T10:27:01;11.15;;;10.25;;
44572;SDS011;31762;45.420;10.072;2024-01-06T10:32:03;11.55;;;10.55;;
44572;SDS011;31762;45.420;10.072;2024-01-06T10:37:06;11.82;;;10.82;;
44572;SDS011;31762;45.420;10.072;2024-01-06T10:42:08;11.95;;;10.95;;
44572;SDS011;31762;45.420;10.072;2024-01-06T10:47:11;11.32;;;10.38;;
44572;SDS011;31762;45.420;10.072;2024-01-06T10:52:14;11.05;;;10.15;;
44572;SDS011;31762;45.420;10.072;2024-01-06T10:57:17;10.32;;;9.52;;
44572;SDS011;31762;45.420;10.072;2024-01-06T11:02:20;10.38;;;9.55;;
44572;SDS011;31762;45.420;10.072;2024-01-06T11:07:23;11.27;;;10.38;;
44572;SDS011;31762;45.420;10.072;2024-01-06T11:12:26;10.48;;;9.55;;
44572;SDS011;31762;45.420;10.072;2024-01-06T11:22:49;9.32;;;8.50;;
44572;SDS011;31762;45.420;10.072;2024-01-06T11:27:51;9.82;;;9.02;;
44572;SDS011;31762;45.420;10.072;2024-01-06T11:32:55;9.73;;;8.90;;
44572;SDS011;31762;45.420;10.072;2024-01-06T11:38:01;10.07;;;9.27;;
44572;SDS011;31762;45.420;10.072;2024-01-06T11:43:07;10.88;;;9.98;;
44572;SDS011;31762;45.420;10.072;2024-01-06T11:48:10;9.70;;;8.85;;
44572;SDS011;31762;45.420;10.072;2024-01-06T11:58:18;9.65;;;8.85;;
44572;SDS011;31762;45.420;10.072;2024-01-06T12:03:20;9.02;;;8.32;;
44572;SDS011;31762;45.420;10.072;2024-01-06T12:08:23;9.32;;;8.63;;
44572;SDS011;31762;45.420;10.072;2024-01-06T12:13:25;9.07;;;8.27;;
44572;SDS011;31762;45.420;10.072;2024-01-06T12:18:27;8.77;;;8.10;;
44572;SDS011;31762;45.420;10.072;2024-01-06T12:23:29;9.45;;;8.75;;
44572;SDS011;31762;45.420;10.072;2024-01-06T12:28:35;9.15;;;8.38;;
44572;SDS011;31762;45.420;10.072;2024-01-06T12:33:40;8.77;;;8.18;;
44572;SDS011;31762;45.420;10.072;2024-01-06T12:38:43;8.93;;;8.23;;
44572;SDS011;31762;45.420;10.072;2024-01-06T12:43:45;8.80;;;8.00;;
44572;SDS011;31762;45.420;10.072;2024-01-06T12:48:47;8.68;;;7.97;;
44572;SDS011;31762;45.420;10.072;2024-01-06T12:53:50;8.52;;;7.82;;
44572;SDS011;31762;45.420;10.072;2024-01-06T12:58:52;8.70;;;8.00;;
44572;SDS011;31762;45.420;10.072;2024-01-06T13:03:54;8.95;;;8.25;;
44572;SDS011;31762;45.420;10.072;2024-01-06T13:08:56;9.10;;;8.30;;
44572;SDS011;31762;45.420;10.072;2024-01-06T13:13:59;8.93;;;8.23;;
44572;SDS011;31762;45.420;10.072;2024-01-06T13:19:01;8.68;;;7.88;;
44572;SDS011;31762;45.420;10.072;2024-01-06T13:24:03;8.57;;;7.88;;
44572;SDS011;31762;45.420;10.072;2024-01-06T13:29:06;8.32;;;7.65;;
44572;SDS011;31762;45.420;10.072;2024-01-06T13:34:08;8.13;;;7.43;;
44572;SDS011;31762;45.420;10.072;2024-01-06T13:39:10;9.27;;;8.50;;
44572;SDS011;31762;45.420;10.072;2024-01-06T13:44:13;8.65;;;7.95;;
44572;SDS011;31762;45.420;10.072;2024-01-06T13:49:15;8.32;;;7.63;;
44572;SDS011;31762;45.420;10.072;2024-01-06T13:54:18;9.93;;;9.05;;
44572;SDS011;31762;45.420;10.072;2024-01-06T13:59:21;8.40;;;7.80;;
44572;SDS011;31762;45.420;10.072;2024-01-06T14:04:23;9.00;;;8.20;;
44572;SDS011;31762;45.420;10.072;2024-01-06T14:09:25;9.05;;;8.35;;
44572;SDS011;31762;45.420;10.072;2024-01-06T14:14:28;8.45;;;7.75;;
44572;SDS011;31762;45.420;10.072;2024-01-06T14:19:30;9.18;;;8.45;;
44572;SDS011;31762;45.420;10.072;2024-01-06T14:24:33;9.30;;;8.50;;
44572;SDS011;31762;45.420;10.072;2024-01-06T14:29:38;9.50;;;8.60;;
44572;SDS011;31762;45.420;10.072;2024-01-06T14:34:40;9.05;;;8.25;;
44572;SDS011;31762;45.420;10.072;2024-01-06T14:39:43;10.10;;;9.30;;
44572;SDS011;31762;45.420;10.072;2024-01-06T14:44:45;10.20;;;9.30;;
44572;SDS011;31762;45.420;10.072;2024-01-06T14:49:50;10.27;;;9.48;;
44572;SDS011;31762;45.420;10.072;2024-01-06T14:54:52;9.80;;;9.00;;
44572;SDS011;31762;45.420;10.072;2024-01-06T14:59:54;9.40;;;8.70;;
44572;SDS011;31762;45.420;10.072;2024-01-06T15:04:57;10.27;;;9.38;;
44572;SDS011;31762;45.420;10.072;2024-01-06T15:09:59;10.55;;;9.65;;
44572;SDS011;31762;45.420;10.072;2024-01-06T15:15:10;10.88;;;9.98;;
44572;SDS011;31762;45.420;10.072;2024-01-06T15:20:12;11.10;;;10.18;;
44572;SDS011;31762;45.420;10.072;2024-01-06T15:25:14;10.55;;;9.63;;
44572;SDS011;31762;45.420;10.072;2024-01-06T15:30:17;10.30;;;9.40;;
44572;SDS011;31762;45.420;10.072;2024-01-06T15:35:21;10.00;;;9.20;;
44572;SDS011;31762;45.420;10.072;2024-01-06T15:40:24;10.40;;;9.50;;
44572;SDS011;31762;45.420;10.072;2024-01-06T15:45:27;10.60;;;9.70;;
44572;SDS011;31762;45.420;10.072;2024-01-06T15:50:29;10.98;;;10.07;;
44572;SDS011;31762;45.420;10.072;2024-01-06T15:55:31;10.10;;;9.20;;
44572;SDS011;31762;45.420;10.072;2024-01-06T16:00:33;10.88;;;9.98;;
44572;SDS011;31762;45.420;10.072;2024-01-06T16:05:37;11.30;;;10.40;;
44572;SDS011;31762;45.420;10.072;2024-01-06T16:10:40;10.60;;;9.70;;
44572;SDS011;31762;45.420;10.072;2024-01-06T16:15:42;11.25;;;10.30;;
44572;SDS011;31762;45.420;10.072;2024-01-06T16:20:44;11.55;;;10.55;;
44572;SDS011;31762;45.420;10.072;2024-01-06T16:25:46;11.32;;;10.32;;
44572;SDS011;31762;45.420;10.072;2024-01-06T16:30:49;11.40;;;10.40;;
44572;SDS011;31762;45.420;10.072;2024-01-06T16:35:51;11.60;;;10.57;;
44572;SDS011;31762;45.420;10.072;2024-01-06T16:40:53;11.65;;;10.55;;
44572;SDS011;31762;45.420;10.072;2024-01-06T16:45:56;11.30;;;10.32;;
44572;SDS011;31762;45.420;10.072;2024-01-06T16:50:58;12.45;;;11.35;;
44572;SDS011;31762;45.420;10.072;2024-01-06T16:56:02;12.55;;;11.43;;
44572;SDS011;31762;45.420;10.072;2024-01-06T17:01:04;12.90;;;11.70;;
44572;SDS011;31762;45.420;10.072;2024-01-06T17:06:06;12.32;;;11.32;;
44572;SDS011;31762;45.420;10.072;2024-01-06T17:11:09;13.32;;;12.13;;
44572;SDS011;31762;45.420;10.072;2024-01-06T17:16:11;13.35;;;12.15;;
44572;SDS011;31762;45.420;10.072;2024-01-06T17:21:13;13.52;;;12.32;;
44572;SDS011;31762;45.420;10.072;2024-01-06T17:26:15;12.75;;;11.65;;
44572;SDS011;31762;45.420;10.072;2024-01-06T17:31:18;14.27;;;13.05;;
44572;SDS011;31762;45.420;10.072;2024-01-06T17:36:20;13.80;;;12.60;;
44572;SDS011;31762;45.420;10.072;2024-01-06T17:41:22;14.07;;;12.90;;
44572;SDS011;31762;45.420;10.072;2024-01-06T17:46:28;14.07;;;12.88;;
44572;SDS011;31762;45.420;10.072;2024-01-06T17:51:30;14.18;;;12.82;;
44572;SDS011;31762;45.420;10.072;2024-01-06T17:56:32;15.95;;;14.45;;
44572;SDS011;31762;45.420;10.072;2024-01-06T18:01:35;14.38;;;13.00;;
44572;SDS011;31762;45.420;10.072;2024-01-06T18:06:38;16.33;;;14.73;;
44572;SDS011;31762;45.420;10.072;2024-01-06T18:11:40;16.10;;;14.60;;
44572;SDS011;31762;45.420;10.072;2024-01-06T18:16:42;14.55;;;13.23;;
44572;SDS011;31762;45.420;10.072;2024-01-06T18:21:45;15.15;;;13.80;;
44572;SDS011;31762;45.420;10.072;2024-01-06T18:26:47;16.63;;;15.13;;
44572;SDS011;31762;45.420;10.072;2024-01-06T18:31:49;17.30;;;15.68;;
44572;SDS011;31762;45.420;10.072;2024-01-06T18:36:52;15.93;;;14.45;;
44572;SDS011;31762;45.420;10.072;2024-01-06T18:41:54;16.58;;;15.10;;
44572;SDS011;31762;45.420;10.072;2024-01-06T18:46:56;16.95;;;15.38;;
44572;SDS011;31762;45.420;10.072;2024-01-06T18:51:58;17.13;;;15.52;;
44572;SDS011;31762;45.420;10.072;2024-01-06T18:57:01;17.08;;;15.57;;
44572;SDS011;31762;45.420;10.072;2024-01-06T19:02:03;16.30;;;14.70;;
44572;SDS011;31762;45.420;10.072;2024-01-06T19:07:05;16.95;;;15.45;;
44572;SDS011;31762;45.420;10.072;2024-01-06T19:12:07;15.35;;;13.85;;
44572;SDS011;31762;45.420;10.072;2024-01-06T19:17:10;16.65;;;15.15;;
44572;SDS011;31762;45.420;10.072;2024-01-06T19:22:12;17.08;;;15.38;;
44572;SDS011;31762;45.420;10.072;2024-01-06T19:27:15;16.73;;;15.23;;
44572;SDS011;31762;45.420;10.072;2024-01-06T19:32:17;16.92;;;15.32;;
44572;SDS011;31762;45.420;10.072;2024-01-06T19:37:22;15.23;;;13.85;;
44572;SDS011;31762;45.420;10.072;2024-01-06T19:42:24;16.42;;;14.93;;
44572;SDS011;31762;45.420;10.072;2024-01-06T19:47:27;16.02;;;13.80;;
44572;SDS011;31762;45.420;10.072;2024-01-06T19:52:29;15.23;;;13.93;;
44572;SDS011;31762;45.420;10.072;2024-01-06T19:57:31;16.40;;;14.95;;
44572;SDS011;31762;45.420;10.072;2024-01-06T20:02:33;17.55;;;15.85;;
44572;SDS011;31762;45.420;10.072;2024-01-06T20:07:35;16.75;;;15.25;;
44572;SDS011;31762;45.420;10.072;2024-01-06T20:12:38;17.27;;;15.70;;
44572;SDS011;31762;45.420;10.072;2024-01-06T20:17:40;17.20;;;15.60;;
44572;SDS011;31762;45.420;10.072;2024-01-06T20:22:42;18.30;;;16.60;;
44572;SDS011;31762;45.420;10.072;2024-01-06T20:27:44;17.23;;;15.63;;
44572;SDS011;31762;45.420;10.072;2024-01-06T20:32:47;16.60;;;15.00;;
44572;SDS011;31762;45.420;10.072;2024-01-06T20:37:55;19.13;;;17.15;;
44572;SDS011;31762;45.420;10.072;2024-01-06T20:42:57;15.77;;;14.38;;
44572;SDS011;31762;45.420;10.072;2024-01-06T20:48:00;15.65;;;14.15;;
44572;SDS011;31762;45.420;10.072;2024-01-06T20:53:02;18.85;;;17.08;;
44572;SDS011;31762;45.420;10.072;2024-01-06T20:58:04;18.90;;;17.10;;
44572;SDS011;31762;45.420;10.072;2024-01-06T21:03:07;19.40;;;17.60;;
44572;SDS011;31762;45.420;10.072;2024-01-06T21:08:09;19.30;;;17.50;;
44572;SDS011;31762;45.420;10.072;2024-01-06T21:13:11;17.85;;;16.15;;
44572;SDS011;31762;45.420;10.072;2024-01-06T21:18:13;17.38;;;15.77;;
44572;SDS011;31762;45.420;10.072;2024-01-06T21:23:15;17.58;;;15.98;;
44572;SDS011;31762;45.420;10.072;2024-01-06T21:28:27;18.58;;;16.83;;
44572;SDS011;31762;45.420;10.072;2024-01-06T21:33:30;18.27;;;16.58;;
44572;SDS011;31762;45.420;10.072;2024-01-06T21:38:32;16.67;;;15.18;;
44572;SDS011;31762;45.420;10.072;2024-01-06T21:43:34;16.98;;;15.40;;
44572;SDS011;31762;45.420;10.072;2024-01-06T21:48:36;17.30;;;15.60;;
44572;SDS011;31762;45.420;10.072;2024-01-06T21:53:39;16.15;;;14.50;;
44572;SDS011;31762;45.420;10.072;2024-01-06T21:58:41;17.95;;;16.25;;
44572;SDS011;31762;45.420;10.072;2024-01-06T22:03:43;18.27;;;16.35;;
44572;SDS011;31762;45.420;10.072;2024-01-06T22:08:45;17.23;;;15.73;;
44572;SDS011;31762;45.420;10.072;2024-01-06T22:13:48;17.38;;;15.77;;
44572;SDS011;31762;45.420;10.072;2024-01-06T22:18:50;18.27;;;16.70;;
44572;SDS011;31762;45.420;10.072;2024-01-06T22:23:52;17.20;;;15.52;;
44572;SDS011;31762;45.420;10.072;2024-01-06T22:28:55;16.60;;;15.10;;
44572;SDS011;31762;45.420;10.072;2024-01-06T22:33:57;17.63;;;15.93;;
44572;SDS011;31762;45.420;10.072;2024-01-06T22:38:59;17.45;;;15.85;;
44572;SDS011;31762;45.420;10.072;2024-01-06T22:44:01;18.13;;;16.35;;
44572;SDS011;31762;45.420;10.072;2024-01-06T22:49:04;18.13;;;16.42;;
44572;SDS011;31762;45.420;10.072;2024-01-06T22:54:06;20.13;;;18.30;;
44572;SDS011;31762;45.420;10.072;2024-01-06T22:59:10;17.13;;;15.52;;
44572;SDS011;31762;45.420;10.072;2024-01-06T23:04:13;18.70;;;16.90;;
44572;SDS011;31762;45.420;10.072;2024-01-06T23:09:15;17.52;;;15.95;;
44572;SDS011;31762;45.420;10.072;2024-01-06T23:14:17;18.20;;;16.60;;
44572;SDS011;31762;45.420;10.072;2024-01-06T23:19:20;19.23;;;17.33;;
44572;SDS011;31762;45.420;10.072;2024-01-06T23:24:22;17.33;;;15.65;;
44572;SDS011;31762;45.420;10.072;2024-01-06T23:29:24;17.95;;;16.30;;
44572;SDS011;31762;45.420;10.072;2024-01-06T23:34:26;18.45;;;16.75;;
44572;SDS011;31762;45.420;10.072;2024-01-06T23:39:38;17.23;;;15.52;;
44572;SDS011;31762;45.420;10.072;2024-01-06T23:44:41;17.33;;;15.63;;
44572;SDS011;31762;45.420;10.072;2024-01-06T23:49:43;17.38;;;15.68;;
44572;SDS011;31762;45.420;10.072;2024-01-06T23:54:45;18.42;;;16.73;;
44572;SDS011;31762;45.420;10.072;2024-01-06T23:59:48;16.80;;;15.27;;
